sensor_id;sensor_type;location;lat;lon;timestamp;P1;durP1;ratioP1;P2;durP2;ratioP2
74241;SDS011;62599;49.146;10.426;2023-07-31T00:01:58;3.00;;;0.60;;
74241;SDS011;62599;49.146;10.426;2023-07-31T00:04:23;4.43;;;1.00;;
74241;SDS011;62599;49.146;10.426;2023-07-31T00:06:48;2.53;;;0.77;;
74241;SDS011;62599;49.146;10.426;2023-07-31T00:09:14;2.23;;;0.40;;
74241;SDS011;62599;49.146;10.426;2023-07-31T00:11:39;2.70;;;0.90;;
74241;SDS011;62599;49.146;10.426;2023-07-31T00:14:05;1.73;;;0.40;;
74241;SDS011;62599;49.146;10.426;2023-07-31T00:16:30;1.53;;;0.60;;
74241;SDS011;62599;49.146;10.426;2023-07-31T00:18:55;1.75;;;0.60;;
74241;SDS011;62599;49.146;10.426;2023-07-31T00:21:21;2.03;;;0.53;;
74241;SDS011;62599;49.146;10.426;2023-07-31T00:23:46;4.30;;;0.77;;
74241;SDS011;62599;49.146;10.426;2023-07-31T00:26:11;5.20;;;0.73;;
74241;SDS011;62599;49.146;10.426;2023-07-31T00:28:39;1.23;;;0.55;;
74241;SDS011;62599;49.146;10.426;2023-07-31T00:31:05;1.25;;;0.95;;
74241;SDS011;62599;49.146;10.426;2023-07-31T00:33:31;2.53;;;0.65;;
74241;SDS011;62599;49.146;10.426;2023-07-31T00:35:56;4.97;;;0.82;;
74241;SDS011;62599;49.146;10.426;2023-07-31T00:38:22;0.60;;;0.60;;
74241;SDS011;62599;49.146;10.426;2023-07-31T00:40:47;1.93;;;0.43;;
74241;SDS011;62599;49.146;10.426;2023-07-31T00:43:12;1.17;;;0.50;;
74241;SDS011;62599;49.146;10.426;2023-07-31T00:45:38;3.67;;;0.80;;
74241;SDS011;62599;49.146;10.426;2023-07-31T00:48:04;3.58;;;0.57;;
74241;SDS011;62599;49.146;10.426;2023-07-31T00:50:31;1.95;;;0.57;;
74241;SDS011;62599;49.146;10.426;2023-07-31T00:52:56;3.00;;;0.68;;
74241;SDS011;62599;49.146;10.426;2023-07-31T00:55:22;2.50;;;0.65;;
74241;SDS011;62599;49.146;10.426;2023-07-31T00:57:47;4.40;;;0.80;;
74241;SDS011;62599;49.146;10.426;2023-07-31T01:00:13;2.03;;;0.93;;
74241;SDS011;62599;49.146;10.426;2023-07-31T01:02:38;2.90;;;0.60;;
74241;SDS011;62599;49.146;10.426;2023-07-31T01:05:04;2.95;;;0.50;;
74241;SDS011;62599;49.146;10.426;2023-07-31T01:10:49;6.00;;;1.25;;
74241;SDS011;62599;49.146;10.426;2023-07-31T01:13:19;2.90;;;1.15;;
74241;SDS011;62599;49.146;10.426;2023-07-31T01:15:46;2.40;;;0.95;;
74241;SDS011;62599;49.146;10.426;2023-07-31T01:18:11;2.37;;;0.60;;
74241;SDS011;62599;49.146;10.426;2023-07-31T01:20:36;4.00;;;0.50;;
74241;SDS011;62599;49.146;10.426;2023-07-31T01:28:19;1.45;;;0.38;;
74241;SDS011;62599;49.146;10.426;2023-07-31T01:30:48;3.70;;;0.88;;
74241;SDS011;62599;49.146;10.426;2023-07-31T01:33:14;3.45;;;0.80;;
74241;SDS011;62599;49.146;10.426;2023-07-31T01:35:42;1.17;;;0.80;;
74241;SDS011;62599;49.146;10.426;2023-07-31T01:38:09;0.68;;;0.68;;
74241;SDS011;62599;49.146;10.426;2023-07-31T01:40:35;1.02;;;0.50;;
74241;SDS011;62599;49.146;10.426;2023-07-31T01:43:00;3.55;;;0.52;;
74241;SDS011;62599;49.146;10.426;2023-07-31T01:45:26;2.75;;;0.88;;
74241;SDS011;62599;49.146;10.426;2023-07-31T01:47:51;1.48;;;0.88;;
74241;SDS011;62599;49.146;10.426;2023-07-31T01:50:17;2.40;;;0.65;;
74241;SDS011;62599;49.146;10.426;2023-07-31T01:52:42;3.28;;;0.73;;
74241;SDS011;62599;49.146;10.426;2023-07-31T01:55:07;6.17;;;0.83;;
74241;SDS011;62599;49.146;10.426;2023-07-31T01:57:33;3.55;;;0.80;;
74241;SDS011;62599;49.146;10.426;2023-07-31T01:59:58;1.57;;;0.60;;
74241;SDS011;62599;49.146;10.426;2023-07-31T02:02:24;2.10;;;0.55;;
74241;SDS011;62599;49.146;10.426;2023-07-31T02:04:49;3.70;;;0.77;;
74241;SDS011;62599;49.146;10.426;2023-07-31T02:07:14;3.23;;;0.90;;
74241;SDS011;62599;49.146;10.426;2023-07-31T02:09:40;4.93;;;0.82;;
74241;SDS011;62599;49.146;10.426;2023-07-31T02:12:05;4.43;;;0.43;;
74241;SDS011;62599;49.146;10.426;2023-07-31T02:14:33;2.63;;;1.15;;
74241;SDS011;62599;49.146;10.426;2023-07-31T02:16:59;3.03;;;0.75;;
74241;SDS011;62599;49.146;10.426;2023-07-31T02:19:24;1.75;;;1.10;;
74241;SDS011;62599;49.146;10.426;2023-07-31T02:21:49;3.20;;;1.07;;
74241;SDS011;62599;49.146;10.426;2023-07-31T02:24:15;1.43;;;0.60;;
74241;SDS011;62599;49.146;10.426;2023-07-31T02:26:40;3.53;;;0.57;;
74241;SDS011;62599;49.146;10.426;2023-07-31T02:29:07;1.48;;;0.60;;
74241;SDS011;62599;49.146;10.426;2023-07-31T02:31:33;2.75;;;0.57;;
74241;SDS011;62599;49.146;10.426;2023-07-31T02:33:58;4.80;;;0.57;;
74241;SDS011;62599;49.146;10.426;2023-07-31T02:36:23;4.03;;;1.10;;
74241;SDS011;62599;49.146;10.426;2023-07-31T02:38:49;4.20;;;0.57;;
74241;SDS011;62599;49.146;10.426;2023-07-31T02:41:14;2.57;;;0.50;;
74241;SDS011;62599;49.146;10.426;2023-07-31T02:43:39;1.98;;;0.68;;
74241;SDS011;62599;49.146;10.426;2023-07-31T02:46:05;4.17;;;0.80;;
74241;SDS011;62599;49.146;10.426;2023-07-31T02:48:30;3.72;;;0.63;;
74241;SDS011;62599;49.146;10.426;2023-07-31T02:50:56;0.50;;;0.40;;
74241;SDS011;62599;49.146;10.426;2023-07-31T02:53:21;1.13;;;0.80;;
74241;SDS011;62599;49.146;10.426;2023-07-31T02:55:48;0.90;;;0.52;;
74241;SDS011;62599;49.146;10.426;2023-07-31T02:58:13;7.45;;;0.55;;
74241;SDS011;62599;49.146;10.426;2023-07-31T03:00:45;1.33;;;0.93;;
74241;SDS011;62599;49.146;10.426;2023-07-31T03:03:10;2.45;;;0.95;;
74241;SDS011;62599;49.146;10.426;2023-07-31T03:05:36;1.33;;;0.45;;
74241;SDS011;62599;49.146;10.426;2023-07-31T03:08:01;2.53;;;0.98;;
74241;SDS011;62599;49.146;10.426;2023-07-31T03:10:27;3.38;;;0.63;;
74241;SDS011;62599;49.146;10.426;2023-07-31T03:12:52;1.95;;;0.68;;
74241;SDS011;62599;49.146;10.426;2023-07-31T03:15:18;4.32;;;1.05;;
74241;SDS011;62599;49.146;10.426;2023-07-31T03:17:43;3.60;;;0.70;;
74241;SDS011;62599;49.146;10.426;2023-07-31T03:20:09;1.42;;;1.33;;
74241;SDS011;62599;49.146;10.426;2023-07-31T03:22:34;2.55;;;0.52;;
74241;SDS011;62599;49.146;10.426;2023-07-31T03:25:00;2.67;;;0.60;;
74241;SDS011;62599;49.146;10.426;2023-07-31T03:27:26;4.10;;;0.60;;
74241;SDS011;62599;49.146;10.426;2023-07-31T03:29:52;1.85;;;0.73;;
74241;SDS011;62599;49.146;10.426;2023-07-31T03:32:17;1.95;;;0.68;;
74241;SDS011;62599;49.146;10.426;2023-07-31T03:34:42;0.80;;;0.60;;
74241;SDS011;62599;49.146;10.426;2023-07-31T03:37:08;0.63;;;0.50;;
74241;SDS011;62599;49.146;10.426;2023-07-31T03:39:34;0.93;;;0.60;;
74241;SDS011;62599;49.146;10.426;2023-07-31T03:42:00;2.33;;;0.65;;
74241;SDS011;62599;49.146;10.426;2023-07-31T03:44:25;0.97;;;0.77;;
74241;SDS011;62599;49.146;10.426;2023-07-31T03:46:50;1.42;;;0.70;;
74241;SDS011;62599;49.146;10.426;2023-07-31T03:49:16;2.60;;;0.68;;
74241;SDS011;62599;49.146;10.426;2023-07-31T03:51:41;2.43;;;0.57;;
74241;SDS011;62599;49.146;10.426;2023-07-31T03:54:07;2.87;;;0.47;;
74241;SDS011;62599;49.146;10.426;2023-07-31T03:56:32;4.82;;;0.98;;
74241;SDS011;62599;49.146;10.426;2023-07-31T03:58:58;2.60;;;0.93;;
74241;SDS011;62599;49.146;10.426;2023-07-31T04:01:23;1.47;;;0.90;;
74241;SDS011;62599;49.146;10.426;2023-07-31T04:03:49;1.90;;;0.60;;
74241;SDS011;62599;49.146;10.426;2023-07-31T04:06:14;3.07;;;0.80;;
74241;SDS011;62599;49.146;10.426;2023-07-31T04:08:43;3.28;;;0.70;;
74241;SDS011;62599;49.146;10.426;2023-07-31T04:11:09;0.32;;;0.22;;
74241;SDS011;62599;49.146;10.426;2023-07-31T04:13:34;2.33;;;0.93;;
74241;SDS011;62599;49.146;10.426;2023-07-31T04:15:59;2.20;;;1.17;;
74241;SDS011;62599;49.146;10.426;2023-07-31T04:18:25;1.70;;;0.60;;
74241;SDS011;62599;49.146;10.426;2023-07-31T04:20:51;4.63;;;0.75;;
74241;SDS011;62599;49.146;10.426;2023-07-31T04:23:16;5.35;;;0.88;;
74241;SDS011;62599;49.146;10.426;2023-07-31T04:25:41;1.20;;;0.70;;
74241;SDS011;62599;49.146;10.426;2023-07-31T04:28:07;1.20;;;0.80;;
74241;SDS011;62599;49.146;10.426;2023-07-31T04:30:33;3.13;;;0.50;;
74241;SDS011;62599;49.146;10.426;2023-07-31T04:32:58;1.02;;;0.57;;
74241;SDS011;62599;49.146;10.426;2023-07-31T04:35:23;1.17;;;0.47;;
74241;SDS011;62599;49.146;10.426;2023-07-31T04:37:49;0.80;;;0.80;;
74241;SDS011;62599;49.146;10.426;2023-07-31T04:40:15;1.88;;;0.82;;
74241;SDS011;62599;49.146;10.426;2023-07-31T04:42:41;1.13;;;0.63;;
74241;SDS011;62599;49.146;10.426;2023-07-31T04:45:08;1.77;;;0.47;;
74241;SDS011;62599;49.146;10.426;2023-07-31T04:47:34;1.55;;;0.45;;
74241;SDS011;62599;49.146;10.426;2023-07-31T04:49:59;0.88;;;0.47;;
74241;SDS011;62599;49.146;10.426;2023-07-31T04:52:24;0.95;;;0.52;;
74241;SDS011;62599;49.146;10.426;2023-07-31T04:54:50;0.40;;;0.40;;
74241;SDS011;62599;49.146;10.426;2023-07-31T04:57:15;4.50;;;0.70;;
74241;SDS011;62599;49.146;10.426;2023-07-31T04:59:40;0.77;;;0.77;;
74241;SDS011;62599;49.146;10.426;2023-07-31T05:02:07;1.50;;;0.63;;
74241;SDS011;62599;49.146;10.426;2023-07-31T05:04:33;2.05;;;0.50;;
74241;SDS011;62599;49.146;10.426;2023-07-31T05:06:59;0.50;;;0.40;;
74241;SDS011;62599;49.146;10.426;2023-07-31T05:09:24;0.90;;;0.43;;
74241;SDS011;62599;49.146;10.426;2023-07-31T05:11:49;1.33;;;0.43;;
74241;SDS011;62599;49.146;10.426;2023-07-31T05:14:15;1.00;;;0.73;;
74241;SDS011;62599;49.146;10.426;2023-07-31T05:16:41;3.17;;;0.57;;
74241;SDS011;62599;49.146;10.426;2023-07-31T05:19:06;0.50;;;0.40;;
74241;SDS011;62599;49.146;10.426;2023-07-31T05:21:31;6.33;;;0.67;;
74241;SDS011;62599;49.146;10.426;2023-07-31T05:23:57;3.33;;;0.90;;
74241;SDS011;62599;49.146;10.426;2023-07-31T05:26:22;2.67;;;0.50;;
74241;SDS011;62599;49.146;10.426;2023-07-31T05:28:47;1.73;;;0.65;;
74241;SDS011;62599;49.146;10.426;2023-07-31T05:31:13;3.58;;;0.60;;
74241;SDS011;62599;49.146;10.426;2023-07-31T05:33:38;4.47;;;0.90;;
74241;SDS011;62599;49.146;10.426;2023-07-31T05:36:04;4.72;;;1.00;;
74241;SDS011;62599;49.146;10.426;2023-07-31T05:38:30;4.07;;;0.82;;
74241;SDS011;62599;49.146;10.426;2023-07-31T05:40:56;1.75;;;1.00;;
74241;SDS011;62599;49.146;10.426;2023-07-31T05:43:21;1.70;;;0.50;;
74241;SDS011;62599;49.146;10.426;2023-07-31T05:45:47;1.13;;;0.60;;
74241;SDS011;62599;49.146;10.426;2023-07-31T05:48:12;2.77;;;0.63;;
74241;SDS011;62599;49.146;10.426;2023-07-31T05:50:37;3.80;;;0.80;;
74241;SDS011;62599;49.146;10.426;2023-07-31T05:53:04;2.50;;;0.55;;
74241;SDS011;62599;49.146;10.426;2023-07-31T05:55:30;2.20;;;0.98;;
74241;SDS011;62599;49.146;10.426;2023-07-31T05:57:56;1.73;;;0.83;;
74241;SDS011;62599;49.146;10.426;2023-07-31T06:00:21;1.63;;;1.20;;
74241;SDS011;62599;49.146;10.426;2023-07-31T06:02:47;4.22;;;0.80;;
74241;SDS011;62599;49.146;10.426;2023-07-31T06:05:13;1.73;;;0.73;;
74241;SDS011;62599;49.146;10.426;2023-07-31T06:07:38;2.57;;;0.40;;
74241;SDS011;62599;49.146;10.426;2023-07-31T06:10:04;1.75;;;1.08;;
74241;SDS011;62599;49.146;10.426;2023-07-31T06:12:34;0.90;;;0.45;;
74241;SDS011;62599;49.146;10.426;2023-07-31T06:15:00;1.58;;;0.75;;
74241;SDS011;62599;49.146;10.426;2023-07-31T06:17:26;3.03;;;0.43;;
74241;SDS011;62599;49.146;10.426;2023-07-31T06:19:52;2.72;;;1.00;;
74241;SDS011;62599;49.146;10.426;2023-07-31T06:22:18;1.05;;;0.43;;
74241;SDS011;62599;49.146;10.426;2023-07-31T06:24:43;2.30;;;0.40;;
74241;SDS011;62599;49.146;10.426;2023-07-31T06:27:09;2.88;;;0.30;;
74241;SDS011;62599;49.146;10.426;2023-07-31T06:29:35;2.67;;;0.82;;
74241;SDS011;62599;49.146;10.426;2023-07-31T06:32:00;0.80;;;0.70;;
74241;SDS011;62599;49.146;10.426;2023-07-31T06:34:26;2.85;;;1.17;;
74241;SDS011;62599;49.146;10.426;2023-07-31T06:36:51;3.80;;;0.97;;
74241;SDS011;62599;49.146;10.426;2023-07-31T06:39:16;1.90;;;0.63;;
74241;SDS011;62599;49.146;10.426;2023-07-31T06:41:42;1.65;;;0.65;;
74241;SDS011;62599;49.146;10.426;2023-07-31T06:44:09;1.30;;;0.65;;
74241;SDS011;62599;49.146;10.426;2023-07-31T06:46:34;1.92;;;0.70;;
74241;SDS011;62599;49.146;10.426;2023-07-31T06:49:00;4.35;;;1.02;;
74241;SDS011;62599;49.146;10.426;2023-07-31T06:51:25;3.50;;;1.10;;
74241;SDS011;62599;49.146;10.426;2023-07-31T06:53:51;3.63;;;1.13;;
74241;SDS011;62599;49.146;10.426;2023-07-31T06:56:16;1.73;;;0.73;;
74241;SDS011;62599;49.146;10.426;2023-07-31T06:58:42;1.65;;;0.93;;
74241;SDS011;62599;49.146;10.426;2023-07-31T07:01:08;2.22;;;0.75;;
74241;SDS011;62599;49.146;10.426;2023-07-31T07:03:33;4.15;;;1.10;;
74241;SDS011;62599;49.146;10.426;2023-07-31T07:05:59;1.70;;;0.70;;
74241;SDS011;62599;49.146;10.426;2023-07-31T07:08:24;3.47;;;1.20;;
74241;SDS011;62599;49.146;10.426;2023-07-31T07:10:50;2.55;;;0.82;;
74241;SDS011;62599;49.146;10.426;2023-07-31T07:13:15;2.23;;;1.40;;
74241;SDS011;62599;49.146;10.426;2023-07-31T07:15:41;1.48;;;0.80;;
74241;SDS011;62599;49.146;10.426;2023-07-31T07:18:06;4.40;;;1.20;;
74241;SDS011;62599;49.146;10.426;2023-07-31T07:20:32;2.42;;;0.85;;
74241;SDS011;62599;49.146;10.426;2023-07-31T07:22:57;0.95;;;0.65;;
74241;SDS011;62599;49.146;10.426;2023-07-31T07:25:23;2.57;;;0.93;;
74241;SDS011;62599;49.146;10.426;2023-07-31T07:27:48;0.90;;;0.73;;
74241;SDS011;62599;49.146;10.426;2023-07-31T07:30:14;1.33;;;0.77;;
74241;SDS011;62599;49.146;10.426;2023-07-31T07:32:39;3.03;;;1.15;;
74241;SDS011;62599;49.146;10.426;2023-07-31T07:35:05;0.98;;;0.30;;
74241;SDS011;62599;49.146;10.426;2023-07-31T07:37:31;6.60;;;1.10;;
74241;SDS011;62599;49.146;10.426;2023-07-31T07:39:57;2.00;;;1.00;;
74241;SDS011;62599;49.146;10.426;2023-07-31T07:42:22;3.03;;;1.13;;
74241;SDS011;62599;49.146;10.426;2023-07-31T07:44:48;5.60;;;1.23;;
74241;SDS011;62599;49.146;10.426;2023-07-31T07:47:13;1.95;;;0.95;;
74241;SDS011;62599;49.146;10.426;2023-07-31T07:49:38;3.53;;;0.90;;
74241;SDS011;62599;49.146;10.426;2023-07-31T07:52:04;1.80;;;0.77;;
74241;SDS011;62599;49.146;10.426;2023-07-31T07:54:30;1.95;;;0.55;;
74241;SDS011;62599;49.146;10.426;2023-07-31T07:56:56;1.63;;;0.77;;
74241;SDS011;62599;49.146;10.426;2023-07-31T07:59:21;1.60;;;1.00;;
74241;SDS011;62599;49.146;10.426;2023-07-31T08:01:47;1.23;;;0.57;;
74241;SDS011;62599;49.146;10.426;2023-07-31T08:04:12;2.90;;;1.03;;
74241;SDS011;62599;49.146;10.426;2023-07-31T08:06:37;1.67;;;0.73;;
74241;SDS011;62599;49.146;10.426;2023-07-31T08:09:03;2.45;;;1.15;;
74241;SDS011;62599;49.146;10.426;2023-07-31T08:11:31;2.90;;;0.77;;
74241;SDS011;62599;49.146;10.426;2023-07-31T08:13:59;1.48;;;0.80;;
74241;SDS011;62599;49.146;10.426;2023-07-31T08:16:25;2.38;;;0.60;;
74241;SDS011;62599;49.146;10.426;2023-07-31T08:18:50;2.53;;;0.70;;
74241;SDS011;62599;49.146;10.426;2023-07-31T08:21:16;1.75;;;0.95;;
74241;SDS011;62599;49.146;10.426;2023-07-31T08:23:41;2.03;;;1.02;;
74241;SDS011;62599;49.146;10.426;2023-07-31T08:26:07;2.75;;;1.27;;
74241;SDS011;62599;49.146;10.426;2023-07-31T08:28:32;3.60;;;1.15;;
74241;SDS011;62599;49.146;10.426;2023-07-31T08:30:57;4.75;;;1.20;;
74241;SDS011;62599;49.146;10.426;2023-07-31T08:33:23;5.05;;;1.17;;
74241;SDS011;62599;49.146;10.426;2023-07-31T08:35:48;3.83;;;1.00;;
74241;SDS011;62599;49.146;10.426;2023-07-31T08:38:14;6.65;;;1.10;;
74241;SDS011;62599;49.146;10.426;2023-07-31T08:40:39;2.58;;;0.95;;
74241;SDS011;62599;49.146;10.426;2023-07-31T08:43:05;2.88;;;0.98;;
74241;SDS011;62599;49.146;10.426;2023-07-31T08:45:30;3.65;;;1.02;;
74241;SDS011;62599;49.146;10.426;2023-07-31T08:47:57;1.65;;;0.82;;
74241;SDS011;62599;49.146;10.426;2023-07-31T08:50:24;1.45;;;0.88;;
74241;SDS011;62599;49.146;10.426;2023-07-31T08:52:50;5.22;;;1.20;;
74241;SDS011;62599;49.146;10.426;2023-07-31T08:55:16;3.70;;;1.25;;
74241;SDS011;62599;49.146;10.426;2023-07-31T08:57:48;3.90;;;1.45;;
74241;SDS011;62599;49.146;10.426;2023-07-31T09:00:15;7.20;;;1.42;;
74241;SDS011;62599;49.146;10.426;2023-07-31T09:05:06;5.57;;;1.70;;
74241;SDS011;62599;49.146;10.426;2023-07-31T09:07:33;7.55;;;1.08;;
74241;SDS011;62599;49.146;10.426;2023-07-31T09:10:01;2.13;;;1.15;;
74241;SDS011;62599;49.146;10.426;2023-07-31T09:12:27;2.55;;;1.20;;
74241;SDS011;62599;49.146;10.426;2023-07-31T09:14:53;6.50;;;1.10;;
74241;SDS011;62599;49.146;10.426;2023-07-31T09:17:31;7.83;;;1.33;;
74241;SDS011;62599;49.146;10.426;2023-07-31T09:20:05;2.42;;;1.33;;
74241;SDS011;62599;49.146;10.426;2023-07-31T09:22:38;2.67;;;0.75;;
74241;SDS011;62599;49.146;10.426;2023-07-31T09:25:20;4.35;;;1.55;;
74241;SDS011;62599;49.146;10.426;2023-07-31T09:30:13;2.70;;;0.82;;
74241;SDS011;62599;49.146;10.426;2023-07-31T09:32:39;2.90;;;1.42;;
74241;SDS011;62599;49.146;10.426;2023-07-31T09:35:47;4.03;;;1.50;;
74241;SDS011;62599;49.146;10.426;2023-07-31T09:37:58;2.55;;;1.60;;
74241;SDS011;62599;49.146;10.426;2023-07-31T09:40:32;6.28;;;1.38;;
74241;SDS011;62599;49.146;10.426;2023-07-31T09:45:28;3.95;;;1.63;;
74241;SDS011;62599;49.146;10.426;2023-07-31T09:47:54;4.88;;;0.98;;
74241;SDS011;62599;49.146;10.426;2023-07-31T09:50:22;2.53;;;1.10;;
74241;SDS011;62599;49.146;10.426;2023-07-31T09:52:49;8.00;;;1.65;;
74241;SDS011;62599;49.146;10.426;2023-07-31T09:55:18;2.95;;;1.25;;
74241;SDS011;62599;49.146;10.426;2023-07-31T09:57:45;4.22;;;1.40;;
74241;SDS011;62599;49.146;10.426;2023-07-31T10:00:13;2.60;;;1.15;;
74241;SDS011;62599;49.146;10.426;2023-07-31T10:02:40;5.30;;;1.00;;
74241;SDS011;62599;49.146;10.426;2023-07-31T10:05:06;5.00;;;1.38;;
74241;SDS011;62599;49.146;10.426;2023-07-31T10:07:38;2.63;;;1.20;;
74241;SDS011;62599;49.146;10.426;2023-07-31T10:10:07;1.65;;;0.98;;
74241;SDS011;62599;49.146;10.426;2023-07-31T10:12:33;3.58;;;0.93;;
74241;SDS011;62599;49.146;10.426;2023-07-31T10:15:00;3.33;;;1.52;;
74241;SDS011;62599;49.146;10.426;2023-07-31T10:17:26;2.25;;;1.25;;
74241;SDS011;62599;49.146;10.426;2023-07-31T10:19:54;3.47;;;1.55;;
74241;SDS011;62599;49.146;10.426;2023-07-31T10:22:21;1.73;;;0.88;;
74241;SDS011;62599;49.146;10.426;2023-07-31T10:24:47;3.10;;;1.85;;
74241;SDS011;62599;49.146;10.426;2023-07-31T10:27:13;2.67;;;0.93;;
74241;SDS011;62599;49.146;10.426;2023-07-31T10:29:39;2.08;;;0.95;;
74241;SDS011;62599;49.146;10.426;2023-07-31T10:32:08;2.42;;;1.17;;
74241;SDS011;62599;49.146;10.426;2023-07-31T10:34:36;2.00;;;1.20;;
74241;SDS011;62599;49.146;10.426;2023-07-31T10:42:45;4.55;;;1.63;;
74241;SDS011;62599;49.146;10.426;2023-07-31T10:45:10;1.58;;;1.30;;
74241;SDS011;62599;49.146;10.426;2023-07-31T10:47:36;1.83;;;1.23;;
74241;SDS011;62599;49.146;10.426;2023-07-31T10:50:21;2.88;;;1.23;;
74241;SDS011;62599;49.146;10.426;2023-07-31T10:55:15;3.05;;;0.95;;
74241;SDS011;62599;49.146;10.426;2023-07-31T10:57:49;3.15;;;1.52;;
74241;SDS011;62599;49.146;10.426;2023-07-31T11:00:21;3.08;;;1.05;;
74241;SDS011;62599;49.146;10.426;2023-07-31T11:02:57;4.00;;;0.90;;
74241;SDS011;62599;49.146;10.426;2023-07-31T11:08:15;2.65;;;1.38;;
74241;SDS011;62599;49.146;10.426;2023-07-31T11:10:41;2.58;;;1.10;;
74241;SDS011;62599;49.146;10.426;2023-07-31T11:13:10;1.38;;;0.77;;
74241;SDS011;62599;49.146;10.426;2023-07-31T11:15:36;3.38;;;1.13;;
74241;SDS011;62599;49.146;10.426;2023-07-31T11:18:02;2.58;;;1.23;;
74241;SDS011;62599;49.146;10.426;2023-07-31T11:20:34;1.90;;;1.10;;
74241;SDS011;62599;49.146;10.426;2023-07-31T11:23:01;6.03;;;1.58;;
74241;SDS011;62599;49.146;10.426;2023-07-31T11:25:28;3.35;;;1.13;;
74241;SDS011;62599;49.146;10.426;2023-07-31T11:27:56;2.90;;;1.27;;
74241;SDS011;62599;49.146;10.426;2023-07-31T11:30:22;1.63;;;1.13;;
74241;SDS011;62599;49.146;10.426;2023-07-31T11:32:47;4.03;;;1.65;;
74241;SDS011;62599;49.146;10.426;2023-07-31T11:35:13;3.10;;;1.27;;
74241;SDS011;62599;49.146;10.426;2023-07-31T11:37:39;4.33;;;1.70;;
74241;SDS011;62599;49.146;10.426;2023-07-31T11:40:06;3.80;;;1.63;;
74241;SDS011;62599;49.146;10.426;2023-07-31T11:42:50;4.28;;;1.67;;
74241;SDS011;62599;49.146;10.426;2023-07-31T11:47:51;3.17;;;1.80;;
74241;SDS011;62599;49.146;10.426;2023-07-31T11:50:23;2.15;;;1.15;;
74241;SDS011;62599;49.146;10.426;2023-07-31T11:52:59;3.83;;;1.10;;
74241;SDS011;62599;49.146;10.426;2023-07-31T11:55:28;3.53;;;1.10;;
74241;SDS011;62599;49.146;10.426;2023-07-31T11:57:54;3.40;;;1.45;;
74241;SDS011;62599;49.146;10.426;2023-07-31T12:00:22;2.55;;;1.80;;
74241;SDS011;62599;49.146;10.426;2023-07-31T12:02:48;3.53;;;1.17;;
74241;SDS011;62599;49.146;10.426;2023-07-31T12:05:13;4.22;;;1.73;;
74241;SDS011;62599;49.146;10.426;2023-07-31T12:07:57;4.25;;;1.65;;
74241;SDS011;62599;49.146;10.426;2023-07-31T12:10:31;3.08;;;1.30;;
74241;SDS011;62599;49.146;10.426;2023-07-31T12:13:19;2.92;;;1.65;;
74241;SDS011;62599;49.146;10.426;2023-07-31T12:16:06;2.03;;;0.80;;
74241;SDS011;62599;49.146;10.426;2023-07-31T12:18:35;1.92;;;1.20;;
74241;SDS011;62599;49.146;10.426;2023-07-31T12:21:04;2.80;;;1.35;;
74241;SDS011;62599;49.146;10.426;2023-07-31T12:23:31;3.20;;;1.73;;
74241;SDS011;62599;49.146;10.426;2023-07-31T12:28:40;5.55;;;1.63;;
74241;SDS011;62599;49.146;10.426;2023-07-31T12:31:12;4.53;;;1.75;;
74241;SDS011;62599;49.146;10.426;2023-07-31T12:33:40;1.65;;;1.42;;
74241;SDS011;62599;49.146;10.426;2023-07-31T12:36:07;2.25;;;1.23;;
74241;SDS011;62599;49.146;10.426;2023-07-31T12:38:34;1.73;;;0.90;;
74241;SDS011;62599;49.146;10.426;2023-07-31T12:41:00;1.60;;;1.25;;
74241;SDS011;62599;49.146;10.426;2023-07-31T12:43:25;4.00;;;1.65;;
74241;SDS011;62599;49.146;10.426;2023-07-31T12:45:51;1.58;;;1.10;;
74241;SDS011;62599;49.146;10.426;2023-07-31T12:48:16;2.53;;;1.15;;
74241;SDS011;62599;49.146;10.426;2023-07-31T12:50:42;2.20;;;1.27;;
74241;SDS011;62599;49.146;10.426;2023-07-31T12:53:07;5.65;;;1.33;;
74241;SDS011;62599;49.146;10.426;2023-07-31T12:55:32;3.95;;;1.45;;
74241;SDS011;62599;49.146;10.426;2023-07-31T12:58:01;4.32;;;2.28;;
74241;SDS011;62599;49.146;10.426;2023-07-31T13:00:27;3.47;;;1.33;;
74241;SDS011;62599;49.146;10.426;2023-07-31T13:02:52;3.00;;;1.17;;
74241;SDS011;62599;49.146;10.426;2023-07-31T13:05:18;6.67;;;1.80;;
74241;SDS011;62599;49.146;10.426;2023-07-31T13:07:45;2.58;;;1.50;;
74241;SDS011;62599;49.146;10.426;2023-07-31T13:10:11;2.47;;;1.23;;
74241;SDS011;62599;49.146;10.426;2023-07-31T13:12:36;3.33;;;1.55;;
74241;SDS011;62599;49.146;10.426;2023-07-31T13:15:01;3.53;;;1.63;;
74241;SDS011;62599;49.146;10.426;2023-07-31T13:17:27;3.75;;;1.58;;
74241;SDS011;62599;49.146;10.426;2023-07-31T13:19:52;4.13;;;1.88;;
74241;SDS011;62599;49.146;10.426;2023-07-31T13:22:18;4.83;;;1.63;;
74241;SDS011;62599;49.146;10.426;2023-07-31T13:24:43;3.95;;;1.38;;
74241;SDS011;62599;49.146;10.426;2023-07-31T13:27:08;3.90;;;1.53;;
74241;SDS011;62599;49.146;10.426;2023-07-31T13:29:34;1.47;;;1.20;;
74241;SDS011;62599;49.146;10.426;2023-07-31T13:31:59;2.83;;;1.48;;
74241;SDS011;62599;49.146;10.426;2023-07-31T13:34:25;1.87;;;1.60;;
74241;SDS011;62599;49.146;10.426;2023-07-31T13:36:50;5.47;;;1.23;;
74241;SDS011;62599;49.146;10.426;2023-07-31T13:39:15;5.80;;;1.70;;
74241;SDS011;62599;49.146;10.426;2023-07-31T13:41:41;3.35;;;1.08;;
74241;SDS011;62599;49.146;10.426;2023-07-31T13:44:06;3.30;;;1.60;;
74241;SDS011;62599;49.146;10.426;2023-07-31T13:46:31;2.78;;;1.20;;
74241;SDS011;62599;49.146;10.426;2023-07-31T13:48:57;3.10;;;1.20;;
74241;SDS011;62599;49.146;10.426;2023-07-31T13:51:24;4.10;;;1.38;;
74241;SDS011;62599;49.146;10.426;2023-07-31T13:53:50;2.70;;;1.35;;
74241;SDS011;62599;49.146;10.426;2023-07-31T13:56:15;3.15;;;1.02;;
74241;SDS011;62599;49.146;10.426;2023-07-31T13:58:41;3.08;;;1.85;;
74241;SDS011;62599;49.146;10.426;2023-07-31T14:01:06;6.37;;;1.70;;
74241;SDS011;62599;49.146;10.426;2023-07-31T14:03:32;5.37;;;2.20;;
74241;SDS011;62599;49.146;10.426;2023-07-31T14:05:57;3.33;;;1.23;;
74241;SDS011;62599;49.146;10.426;2023-07-31T14:08:22;3.35;;;1.40;;
74241;SDS011;62599;49.146;10.426;2023-07-31T14:10:48;3.90;;;1.42;;
74241;SDS011;62599;49.146;10.426;2023-07-31T14:13:13;2.53;;;1.20;;
74241;SDS011;62599;49.146;10.426;2023-07-31T14:15:41;2.45;;;1.50;;
74241;SDS011;62599;49.146;10.426;2023-07-31T14:18:07;3.60;;;1.65;;
74241;SDS011;62599;49.146;10.426;2023-07-31T14:20:32;2.20;;;1.27;;
74241;SDS011;62599;49.146;10.426;2023-07-31T14:22:58;2.42;;;1.77;;
74241;SDS011;62599;49.146;10.426;2023-07-31T14:25:24;6.82;;;2.30;;
74241;SDS011;62599;49.146;10.426;2023-07-31T14:27:49;3.60;;;1.90;;
74241;SDS011;62599;49.146;10.426;2023-07-31T14:30:14;4.40;;;1.17;;
74241;SDS011;62599;49.146;10.426;2023-07-31T14:32:40;2.10;;;1.35;;
74241;SDS011;62599;49.146;10.426;2023-07-31T14:35:05;2.25;;;1.80;;
74241;SDS011;62599;49.146;10.426;2023-07-31T14:37:38;2.65;;;1.40;;
74241;SDS011;62599;49.146;10.426;2023-07-31T14:40:05;4.28;;;1.77;;
74241;SDS011;62599;49.146;10.426;2023-07-31T14:42:32;1.83;;;1.33;;
74241;SDS011;62599;49.146;10.426;2023-07-31T14:44:57;3.37;;;2.03;;
74241;SDS011;62599;49.146;10.426;2023-07-31T14:47:22;2.55;;;1.23;;
74241;SDS011;62599;49.146;10.426;2023-07-31T14:49:48;1.90;;;1.05;;
74241;SDS011;62599;49.146;10.426;2023-07-31T14:52:13;1.93;;;1.00;;
74241;SDS011;62599;49.146;10.426;2023-07-31T14:54:39;3.45;;;1.52;;
74241;SDS011;62599;49.146;10.426;2023-07-31T14:57:04;3.23;;;1.00;;
74241;SDS011;62599;49.146;10.426;2023-07-31T14:59:30;4.53;;;2.03;;
74241;SDS011;62599;49.146;10.426;2023-07-31T15:01:56;2.07;;;1.10;;